Time;durP1;ratioP1;P1;durP2;ratioP2;P2;SDS_P1;SDS_P2;PMS_P1;PMS_P2;Temp;Humidity;BMP_temperature;BMP_pressure;BME280_temperature;BME280_humidity;BME280_pressure;Samples;Min_cycle;Max_cycle;Signal;HPM_P1;HPM_P2
2022/09/09 00:00:18;;;;;;;0.05;0.05;;;23.60;94.40;;;;;;5065112;28;48499;-77
2022/09/09 00:02:54;;;;;;;0.10;0.10;;;23.60;94.40;;;;;;5065185;28;45309;-77
2022/09/09 00:05:27;;;;;;;0.00;0.00;;;23.60;94.40;;;;;;5065286;28;45235;-76
2022/09/09 00:08:00;;;;;;;0.10;0.05;;;23.60;94.60;;;;;;5065500;28;45521;-76
2022/09/09 00:10:31;;;;;;;0.45;0.20;;;23.60;94.50;;;;;;5066642;28;47019;-76
2022/09/09 00:13:05;;;;;;;0.13;0.10;;;23.60;94.70;;;;;;5068740;28;45273;-77
2022/09/09 00:15:39;;;;;;;0.22;0.10;;;23.60;94.60;;;;;;5068868;28;45309;-77
2022/09/09 00:18:19;;;;;;;0.05;0.05;;;23.60;94.60;;;;;;5068530;28;45397;-77
2022/09/09 00:20:51;;;;;;;0.75;0.20;;;23.60;95.00;;;;;;5068941;28;47199;-76
2022/09/09 00:23:25;;;;;;;0.10;0.10;;;23.60;94.60;;;;;;5068529;28;45205;-74
2022/09/09 00:26:00;;;;;;;0.38;0.10;;;23.60;94.50;;;;;;5068709;28;45234;-74
2022/09/09 00:28:30;;;;;;;0.65;0.20;;;23.60;94.90;;;;;;5068655;28;45207;-74
2022/09/09 00:31:01;;;;;;;0.10;0.10;;;23.60;94.50;;;;;;5068472;28;45878;-74
2022/09/09 00:36:53;;;;;;;0.43;0.00;;;23.60;95.00;;;;;;5050268;28;45171;-74
2022/09/09 00:39:28;;;;;;;0.68;0.30;;;23.60;94.40;;;;;;5067472;28;45583;-74
2022/09/09 00:42:09;;;;;;;0.10;0.10;;;23.60;94.40;;;;;;5068361;28;47556;-74
2022/09/09 00:44:39;;;;;;;0.13;0.10;;;23.60;94.40;;;;;;5068415;28;45211;-74
2022/09/09 00:47:18;;;;;;;0.80;0.17;;;23.60;94.70;;;;;;5068489;28;45092;-74
2022/09/09 00:49:56;;;;;;;0.40;0.20;;;23.60;94.60;;;;;;5068101;28;45435;-74
2022/09/09 00:52:33;;;;;;;0.30;0.10;;;23.60;94.70;;;;;;5064925;28;45286;-74
2022/09/09 00:55:09;;;;;;;0.30;0.10;;;23.60;94.40;;;;;;5067953;28;45206;-74
2022/09/09 00:57:37;;;;;;;0.00;0.00;;;23.60;94.50;;;;;;5068196;28;45286;-74
2022/09/09 01:03:35;;;;;;;0.15;0.00;;;23.60;94.40;;;;;;5064823;28;45692;-74
2022/09/09 01:06:12;;;;;;;0.17;0.08;;;23.60;94.30;;;;;;5067563;28;45143;-74
2022/09/09 01:09:05;;;;;;;0.20;0.20;;;23.60;94.50;;;;;;5068057;28;45357;-74
2022/09/09 01:11:42;;;;;;;0.00;0.00;;;23.60;94.40;;;;;;5056531;28;45245;-74
2022/09/09 01:14:18;;;;;;;0.20;0.17;;;23.60;94.50;;;;;;5064635;28;46158;-74
2022/09/09 01:16:46;;;;;;;0.25;0.10;;;23.60;94.50;;;;;;5068075;28;45352;-74
2022/09/09 01:19:20;;;;;;;0.00;0.00;;;23.60;94.40;;;;;;5067704;28;45349;-74
2022/09/09 01:21:54;;;;;;;0.15;0.10;;;23.60;94.50;;;;;;5064104;28;45209;-74
2022/09/09 01:25:09;;;;;;;0.15;0.10;;;23.60;94.40;;;;;;5067902;28;46314;-73
2022/09/09 01:27:38;;;;;;;0.20;0.00;;;23.60;94.40;;;;;;5067302;28;45340;-74
2022/09/09 01:30:09;;;;;;;0.10;0.10;;;23.60;94.60;;;;;;5067708;28;45092;-74
2022/09/09 01:32:43;;;;;;;0.05;0.05;;;23.60;94.30;;;;;;5068155;28;45409;-74
2022/09/09 01:35:14;;;;;;;0.00;0.00;;;23.60;94.50;;;;;;5067198;28;45212;-74
2022/09/09 01:37:41;;;;;;;0.32;0.17;;;23.60;94.40;;;;;;5067450;28;45749;-74
2022/09/09 01:40:09;;;;;;;0.25;0.20;;;23.60;94.30;;;;;;5067370;28;45428;-74
2022/09/09 01:42:37;;;;;;;0.10;0.00;;;23.60;94.30;;;;;;5067594;28;45399;-74
2022/09/09 01:45:05;;;;;;;0.98;0.20;;;23.60;94.30;;;;;;5066903;28;46334;-74
2022/09/09 01:47:31;;;;;;;0.75;0.10;;;23.60;94.50;;;;;;5067530;28;45296;-74
2022/09/09 01:49:59;;;;;;;0.40;0.10;;;23.60;94.30;;;;;;5067339;28;45199;-74
2022/09/09 01:52:26;;;;;;;0.13;0.10;;;23.60;94.40;;;;;;5067831;28;45447;-74
2022/09/09 01:54:53;;;;;;;0.10;0.10;;;23.50;94.50;;;;;;5066873;28;46176;-74
2022/09/09 01:57:25;;;;;;;0.10;0.10;;;23.50;94.40;;;;;;5066761;28;45686;-75
2022/09/09 02:00:06;;;;;;;0.80;0.10;;;23.60;94.40;;;;;;5067269;28;45148;-75
2022/09/09 02:02:39;;;;;;;0.32;0.08;;;23.50;94.30;;;;;;5067424;28;45256;-75
2022/09/09 02:05:17;;;;;;;0.08;0.08;;;23.50;94.30;;;;;;5064244;28;45462;-75
2022/09/09 02:07:48;;;;;;;0.10;0.05;;;23.50;94.20;;;;;;5066880;28;45277;-76
2022/09/09 02:10:20;;;;;;;0.38;0.10;;;23.50;94.30;;;;;;5067349;28;45080;-75
2022/09/09 02:12:50;;;;;;;0.25;0.13;;;23.50;94.40;;;;;;5067158;28;45431;-75
2022/09/09 02:15:24;;;;;;;0.45;0.10;;;23.50;94.20;;;;;;5066566;28;46429;-75
2022/09/09 02:17:52;;;;;;;0.00;0.00;;;23.50;94.00;;;;;;5068479;28;45837;-75
2022/09/09 02:20:20;;;;;;;0.10;0.10;;;23.50;93.90;;;;;;5066727;28;45234;-75
2022/09/09 02:22:52;;;;;;;0.38;0.10;;;23.50;93.70;;;;;;5066882;28;45573;-75
2022/09/09 02:25:22;;;;;;;0.05;0.03;;;23.50;93.50;;;;;;5066787;28;45389;-75
2022/09/09 02:27:51;;;;;;;0.10;0.10;;;23.50;93.60;;;;;;5063535;28;45222;-75
2022/09/09 02:30:20;;;;;;;0.10;0.10;;;23.50;93.60;;;;;;5066671;28;45280;-75
2022/09/09 02:32:49;;;;;;;0.35;0.10;;;23.50;93.30;;;;;;5066635;28;45203;-75
2022/09/09 02:35:21;;;;;;;0.20;0.20;;;23.50;93.20;;;;;;5066605;28;45334;-75
2022/09/09 02:37:49;;;;;;;0.10;0.10;;;23.50;93.50;;;;;;5063462;28;45239;-75
2022/09/09 02:40:17;;;;;;;0.95;0.10;;;23.50;93.30;;;;;;5066621;28;45122;-75
2022/09/09 02:42:45;;;;;;;0.10;0.10;;;23.50;93.10;;;;;;5066469;28;45619;-75
2022/09/09 02:45:17;;;;;;;0.10;0.10;;;23.50;93.00;;;;;;5066006;28;46441;-75
2022/09/09 02:47:52;;;;;;;0.10;0.10;;;23.50;93.10;;;;;;5066473;28;45999;-75
2022/09/09 02:53:45;;;;;;;0.15;0.15;;;23.50;93.00;;;;;;5063620;28;45257;-75
2022/09/09 02:56:16;;;;;;;0.10;0.10;;;23.50;93.00;;;;;;5066314;28;46432;-75
2022/09/09 02:58:44;;;;;;;0.45;0.10;;;23.50;93.00;;;;;;5066326;28;45225;-75
2022/09/09 03:01:11;;;;;;;0.25;0.10;;;23.50;92.90;;;;;;5066052;28;45241;-75
2022/09/09 03:03:41;;;;;;;0.10;0.10;;;23.50;92.90;;;;;;5066272;28;45651;-75
2022/09/09 03:09:29;;;;;;;0.10;0.10;;;23.40;92.90;;;;;;5067363;28;45117;-75
2022/09/09 03:11:57;;;;;;;0.10;0.10;;;23.50;93.10;;;;;;5065644;28;45218;-75
2022/09/09 03:14:24;;;;;;;0.08;0.08;;;23.40;93.00;;;;;;5066220;28;45532;-75
2022/09/09 03:16:51;;;;;;;0.10;0.10;;;23.50;93.00;;;;;;5065695;28;46268;-75
2022/09/09 03:19:20;;;;;;;0.10;0.00;;;23.50;93.00;;;;;;5065556;28;46027;-75
2022/09/09 03:21:47;;;;;;;0.50;0.20;;;23.50;92.60;;;;;;5066054;28;45135;-75
2022/09/09 03:24:14;;;;;;;0.35;0.15;;;23.50;92.60;;;;;;5066086;28;45625;-76
2022/09/09 03:26:41;;;;;;;0.40;0.10;;;23.50;92.60;;;;;;5065487;28;47442;-76
2022/09/09 03:29:08;;;;;;;0.30;0.13;;;23.50;92.50;;;;;;5065656;28;45380;-75
2022/09/09 03:31:35;;;;;;;0.47;0.10;;;23.50;92.70;;;;;;5065726;28;45139;-75
2022/09/09 03:37:25;;;;;;;0.32;0.10;;;23.50;92.20;;;;;;5062649;28;45205;-75
2022/09/09 03:39:52;;;;;;;0.00;0.00;;;23.50;92.40;;;;;;5065318;28;45896;-75
2022/09/09 03:42:19;;;;;;;0.00;0.00;;;23.50;92.40;;;;;;5065806;28;45187;-75
2022/09/09 03:44:49;;;;;;;0.10;0.10;;;23.50;92.30;;;;;;5066131;28;45474;-75
2022/09/09 03:47:16;;;;;;;1.77;0.68;;;23.50;92.30;;;;;;5068409;28;47357;-75
2022/09/09 03:49:43;;;;;;;0.30;0.10;;;23.50;92.30;;;;;;5068356;28;45352;-75
2022/09/09 03:52:10;;;;;;;0.17;0.10;;;23.50;92.50;;;;;;5068666;28;45240;-75
2022/09/09 03:54:39;;;;;;;0.20;0.20;;;23.50;92.40;;;;;;5068628;28;45458;-75
2022/09/09 03:57:06;;;;;;;0.90;0.20;;;23.50;92.50;;;;;;5067845;28;46631;-75
2022/09/09 03:59:32;;;;;;;0.15;0.15;;;23.50;92.50;;;;;;5069051;28;45088;-75
2022/09/09 04:01:59;;;;;;;0.20;0.20;;;23.50;92.20;;;;;;5068672;28;45167;-75
2022/09/09 04:04:26;;;;;;;0.30;0.10;;;23.50;92.20;;;;;;5067959;28;45170;-75
2022/09/09 04:06:53;;;;;;;0.60;0.25;;;23.50;92.00;;;;;;5067864;28;45503;-75
2022/09/09 04:09:20;;;;;;;0.13;0.13;;;23.50;91.30;;;;;;5068582;28;45133;-75
2022/09/09 04:11:49;;;;;;;0.10;0.10;;;23.40;90.90;;;;;;5068372;28;45422;-75
2022/09/09 04:14:16;;;;;;;0.22;0.10;;;23.40;90.50;;;;;;5069067;28;45378;-76
2022/09/09 04:16:44;;;;;;;0.00;0.00;;;23.40;90.20;;;;;;5068854;28;45203;-75
2022/09/09 04:19:12;;;;;;;0.10;0.10;;;23.50;90.20;;;;;;5068583;28;45478;-75
2022/09/09 04:21:40;;;;;;;0.35;0.20;;;23.50;90.30;;;;;;5068918;28;45254;-75
2022/09/09 04:24:08;;;;;;;0.10;0.10;;;23.50;90.30;;;;;;5068741;28;45163;-75
2022/09/09 04:26:36;;;;;;;1.10;0.30;;;23.50;90.50;;;;;;5068162;28;47089;-74
2022/09/09 04:29:04;;;;;;;0.85;0.25;;;23.50;90.60;;;;;;5068578;28;45423;-76
2022/09/09 04:31:32;;;;;;;1.42;0.28;;;23.50;90.90;;;;;;5068772;28;45213;-75
2022/09/09 04:34:02;;;;;;;0.98;0.10;;;23.50;90.80;;;;;;5068614;28;45540;-75
2022/09/09 04:36:28;;;;;;;1.65;0.32;;;23.50;90.60;;;;;;5068141;28;46930;-75
2022/09/09 04:38:55;;;;;;;0.28;0.10;;;23.50;90.60;;;;;;5068482;28;45197;-75
2022/09/09 04:41:22;;;;;;;0.40;0.03;;;23.50;90.70;;;;;;5068400;28;45282;-75
2022/09/09 04:43:49;;;;;;;0.15;0.15;;;23.50;90.90;;;;;;5068589;28;45244;-75
2022/09/09 04:46:17;;;;;;;0.55;0.20;;;23.60;91.20;;;;;;5068043;28;45522;-75
2022/09/09 04:52:06;;;;;;;0.15;0.10;;;23.50;91.40;;;;;;5066515;28;45221;-69
2022/09/09 04:54:33;;;;;;;0.47;0.20;;;23.50;91.30;;;;;;5068329;28;45137;-74
2022/09/09 04:56:59;;;;;;;1.83;0.20;;;23.50;91.50;;;;;;5066625;28;45400;-74
2022/09/09 04:59:26;;;;;;;0.65;0.20;;;23.50;91.60;;;;;;5067951;28;45213;-74
2022/09/09 05:01:55;;;;;;;0.55;0.20;;;23.50;91.50;;;;;;5068093;28;45198;-74
2022/09/09 05:04:22;;;;;;;1.00;0.20;;;23.50;91.50;;;;;;5068222;28;45280;-75
2022/09/09 05:06:48;;;;;;;0.52;0.28;;;23.50;91.60;;;;;;5067588;28;48179;-74
2022/09/09 05:09:31;;;;;;;0.38;0.20;;;23.50;91.60;;;;;;5067571;28;45376;-75
2022/09/09 05:11:58;;;;;;;0.52;0.30;;;23.50;91.70;;;;;;5067738;28;45281;-75
2022/09/09 05:14:25;;;;;;;0.28;0.15;;;23.50;91.80;;;;;;5068301;28;45185;-75
2022/09/09 05:16:51;;;;;;;0.30;0.10;;;23.50;91.60;;;;;;5067780;28;47531;-75
2022/09/09 05:19:19;;;;;;;0.40;0.10;;;23.50;91.50;;;;;;5067778;28;45806;-75
2022/09/09 05:21:46;;;;;;;0.10;0.10;;;23.50;91.60;;;;;;5067525;28;45221;-75
2022/09/09 05:24:13;;;;;;;0.63;0.10;;;23.50;91.50;;;;;;5068070;28;45112;-75
2022/09/09 05:26:40;;;;;;;0.63;0.40;;;23.50;91.70;;;;;;5067132;28;48006;-75
2022/09/09 05:29:08;;;;;;;0.10;0.10;;;23.50;91.80;;;;;;5067536;28;45242;-75
2022/09/09 05:31:34;;;;;;;0.10;0.10;;;23.50;91.50;;;;;;5067429;28;45367;-75
2022/09/09 05:34:01;;;;;;;0.20;0.20;;;23.50;91.60;;;;;;5067457;28;45507;-75
2022/09/09 05:36:29;;;;;;;0.10;0.10;;;23.50;91.70;;;;;;5067011;28;45460;-75
2022/09/09 05:38:56;;;;;;;0.50;0.10;;;23.50;91.70;;;;;;5067256;28;45221;-75
2022/09/09 05:41:23;;;;;;;0.20;0.10;;;23.50;91.70;;;;;;5067470;28;45206;-75
2022/09/09 05:43:50;;;;;;;0.75;0.30;;;23.50;91.40;;;;;;5067212;28;45594;-74
2022/09/09 05:46:19;;;;;;;0.40;0.20;;;23.50;91.90;;;;;;5067221;28;46896;-75
2022/09/09 05:48:47;;;;;;;0.47;0.22;;;23.50;91.60;;;;;;5067060;28;45217;-74
2022/09/09 05:51:17;;;;;;;0.38;0.10;;;23.60;91.70;;;;;;5067185;28;45326;-74
2022/09/09 05:53:46;;;;;;;0.45;0.17;;;23.50;91.70;;;;;;5067385;28;45122;-74
2022/09/09 05:59:38;;;;;;;0.17;0.17;;;23.50;91.60;;;;;;5064064;28;45313;-74
2022/09/09 06:02:05;;;;;;;1.17;0.30;;;23.50;91.80;;;;;;5066925;28;45262;-74
2022/09/09 06:04:32;;;;;;;0.10;0.10;;;23.50;91.70;;;;;;5066877;28;45082;-74
2022/09/09 06:06:58;;;;;;;0.70;0.10;;;23.50;91.80;;;;;;5067270;28;45307;-75
2022/09/09 06:09:26;;;;;;;0.30;0.25;;;23.50;91.90;;;;;;5066208;28;45221;-75
2022/09/09 06:11:55;;;;;;;0.45;0.20;;;23.50;91.70;;;;;;5066975;28;45355;-75
2022/09/09 06:14:21;;;;;;;0.38;0.20;;;23.50;91.70;;;;;;5067033;28;45113;-75
2022/09/09 06:20:10;;;;;;;0.17;0.10;;;23.50;91.60;;;;;;5063928;28;45279;-75
2022/09/09 06:22:37;;;;;;;0.43;0.22;;;23.50;91.60;;;;;;5066670;28;45231;-75
2022/09/09 06:25:06;;;;;;;0.85;0.20;;;23.50;91.60;;;;;;5066433;28;45120;-72
2022/09/09 06:27:33;;;;;;;2.83;0.45;;;23.60;91.60;;;;;;5066290;28;47633;-75
2022/09/09 06:29:59;;;;;;;3.40;0.60;;;23.50;91.70;;;;;;5066660;28;46258;-74
2022/09/09 06:32:26;;;;;;;1.08;0.38;;;23.50;91.80;;;;;;5066646;28;45195;-75
2022/09/09 06:34:54;;;;;;;2.40;0.28;;;23.50;91.70;;;;;;5066585;28;45561;-75
2022/09/09 06:37:20;;;;;;;3.00;0.30;;;23.50;91.80;;;;;;5066416;28;46553;-75
2022/09/09 06:39:48;;;;;;;0.63;0.20;;;23.50;91.60;;;;;;5066231;28;45189;-74
2022/09/09 06:42:16;;;;;;;2.20;0.38;;;23.50;92.10;;;;;;5066476;28;45232;-75
2022/09/09 06:44:43;;;;;;;0.65;0.30;;;23.50;91.80;;;;;;5066812;28;45333;-74
2022/09/09 06:47:10;;;;;;;1.08;0.32;;;23.60;91.90;;;;;;5066438;28;45313;-75
2022/09/09 06:49:37;;;;;;;1.67;0.38;;;23.50;91.80;;;;;;5066093;28;45224;-75
2022/09/09 06:52:04;;;;;;;3.20;0.32;;;23.50;91.80;;;;;;5066414;28;45220;-75
2022/09/09 06:54:31;;;;;;;0.75;0.20;;;23.50;91.80;;;;;;5066469;28;45222;-74
2022/09/09 06:56:58;;;;;;;0.82;0.30;;;23.50;91.80;;;;;;5065975;28;47811;-75
2022/09/09 06:59:27;;;;;;;2.20;0.30;;;23.50;91.60;;;;;;5066035;28;45179;-75
2022/09/09 07:01:54;;;;;;;0.93;0.25;;;23.50;92.00;;;;;;5066250;28;45262;-75
2022/09/09 07:04:21;;;;;;;0.20;0.15;;;23.50;91.60;;;;;;5066398;28;45162;-74
2022/09/09 07:06:48;;;;;;;0.88;0.38;;;23.50;91.60;;;;;;5065864;28;45190;-74
2022/09/09 07:09:16;;;;;;;0.47;0.10;;;23.50;91.60;;;;;;5065871;28;45202;-74
2022/09/09 07:11:45;;;;;;;0.60;0.30;;;23.50;91.60;;;;;;5065653;28;45320;-74
2022/09/09 07:14:13;;;;;;;0.40;0.10;;;23.50;91.50;;;;;;5066323;28;45285;-74
2022/09/09 07:16:42;;;;;;;0.35;0.20;;;23.50;91.60;;;;;;5066042;28;47818;-74
2022/09/09 07:19:09;;;;;;;0.68;0.30;;;23.50;91.60;;;;;;5065838;28;46363;-74
2022/09/09 07:24:57;;;;;;;0.10;0.10;;;23.50;91.50;;;;;;5066691;28;45202;-75
2022/09/09 07:27:24;;;;;;;0.32;0.28;;;23.50;91.60;;;;;;5069034;28;48513;-74
2022/09/09 07:29:51;;;;;;;1.08;0.30;;;23.50;91.50;;;;;;5071955;28;45266;-74
2022/09/09 07:32:19;;;;;;;0.15;0.10;;;23.60;91.50;;;;;;5069502;28;45148;-75
2022/09/09 07:34:46;;;;;;;0.95;0.22;;;23.60;91.50;;;;;;5069599;28;45117;-74
2022/09/09 07:37:13;;;;;;;0.40;0.20;;;23.50;91.40;;;;;;5069317;28;45529;-74
2022/09/09 07:39:40;;;;;;;0.20;0.10;;;23.50;91.40;;;;;;5068988;28;45198;-74
2022/09/09 07:42:09;;;;;;;0.17;0.10;;;23.50;91.40;;;;;;5069183;28;45141;-74
2022/09/09 07:44:36;;;;;;;0.30;0.10;;;23.50;91.40;;;;;;5069639;28;45185;-74
2022/09/09 07:47:03;;;;;;;0.10;0.10;;;23.60;91.40;;;;;;5068744;28;46513;-74
2022/09/09 07:49:32;;;;;;;0.63;0.20;;;23.60;91.40;;;;;;5068921;28;45132;-74
2022/09/09 07:51:59;;;;;;;0.28;0.20;;;23.50;91.30;;;;;;5069119;28;45211;-74
2022/09/09 07:54:26;;;;;;;0.08;0.00;;;23.60;91.40;;;;;;5069225;28;45141;-74
2022/09/09 08:00:15;;;;;;;0.20;0.20;;;23.50;91.30;;;;;;5065795;28;45182;-75
2022/09/09 08:02:42;;;;;;;0.40;0.17;;;23.50;91.30;;;;;;5069273;28;45234;-74
2022/09/09 08:05:10;;;;;;;0.30;0.15;;;23.50;91.30;;;;;;5068882;28;45215;-74
2022/09/09 08:07:37;;;;;;;0.30;0.15;;;23.50;91.30;;;;;;5068368;28;46595;-74
2022/09/09 08:10:04;;;;;;;0.65;0.32;;;23.60;91.30;;;;;;5068541;28;45072;-73
2022/09/09 08:12:32;;;;;;;0.43;0.17;;;23.50;91.20;;;;;;5068642;28;45152;-74
2022/09/09 08:14:58;;;;;;;0.10;0.10;;;23.50;91.20;;;;;;5068839;28;45575;-74
2022/09/09 08:17:25;;;;;;;0.65;0.30;;;23.50;91.20;;;;;;5068420;28;46301;-74
2022/09/09 08:19:53;;;;;;;0.10;0.10;;;23.60;91.20;;;;;;5068346;28;45142;-74
2022/09/09 08:22:22;;;;;;;0.73;0.13;;;23.50;91.20;;;;;;5070038;28;45190;-74
2022/09/09 08:24:48;;;;;;;0.10;0.10;;;23.50;91.20;;;;;;5068546;28;45234;-74
2022/09/09 08:27:15;;;;;;;0.63;0.13;;;23.50;91.10;;;;;;5068261;28;47031;-73
2022/09/09 08:29:42;;;;;;;0.10;0.10;;;23.50;91.10;;;;;;5068006;28;45835;-74
2022/09/09 08:32:09;;;;;;;0.15;0.10;;;23.50;91.10;;;;;;5080858;28;45198;-73
2022/09/09 08:34:35;;;;;;;0.50;0.20;;;23.60;91.20;;;;;;5088478;28;45100;-74
2022/09/09 08:37:02;;;;;;;0.22;0.17;;;23.50;91.10;;;;;;5088571;28;45218;-74
2022/09/09 08:39:32;;;;;;;0.00;0.00;;;23.50;91.10;;;;;;5088746;28;45239;-74
2022/09/09 08:42:21;;;;;;;0.40;0.20;;;23.60;91.10;;;;;;5088608;28;45160;-74
2022/09/09 08:45:04;;;;;;;0.70;0.10;;;23.60;91.10;;;;;;5070467;28;45338;-74
2022/09/09 08:47:39;;;;;;;0.20;0.10;;;23.60;91.10;;;;;;5087192;28;46273;-74
2022/09/09 08:50:21;;;;;;;0.10;0.10;;;23.60;91.10;;;;;;5067676;28;45266;-74
2022/09/09 08:52:59;;;;;;;0.10;0.10;;;23.60;91.10;;;;;;5067701;28;45142;-74
2022/09/09 08:55:35;;;;;;;0.22;0.20;;;23.60;91.10;;;;;;5068606;28;45524;-74
2022/09/09 08:58:10;;;;;;;0.28;0.10;;;23.60;91.00;;;;;;5067667;28;46474;-74
2022/09/09 09:00:46;;;;;;;0.00;0.00;;;23.60;91.00;;;;;;5067490;28;45252;-74
2022/09/09 09:03:23;;;;;;;0.10;0.10;;;23.60;91.00;;;;;;5067676;28;45328;-74
2022/09/09 09:06:02;;;;;;;0.20;0.10;;;23.60;90.90;;;;;;5067641;28;45202;-73
2022/09/09 09:08:45;;;;;;;0.10;0.10;;;23.60;90.90;;;;;;5067105;28;46382;-74
2022/09/09 09:11:13;;;;;;;0.05;0.03;;;23.60;90.80;;;;;;5066641;28;45901;-74
2022/09/09 09:13:45;;;;;;;0.00;0.00;;;23.60;90.80;;;;;;5067664;28;45364;-74
2022/09/09 09:16:20;;;;;;;0.20;0.20;;;23.60;90.80;;;;;;5069209;28;45544;-73
2022/09/09 09:18:47;;;;;;;0.10;0.10;;;23.60;90.70;;;;;;5067663;28;45482;-74
2022/09/09 09:21:18;;;;;;;0.10;0.10;;;23.60;90.70;;;;;;5067005;28;45257;-74
2022/09/09 09:23:55;;;;;;;0.03;0.03;;;23.70;90.70;;;;;;5067390;28;45361;-74
2022/09/09 09:26:26;;;;;;;1.20;0.10;;;23.70;90.70;;;;;;5067968;28;45198;-74
2022/09/09 09:28:56;;;;;;;0.03;0.03;;;23.70;90.70;;;;;;5066860;28;48545;-74
2022/09/09 09:31:25;;;;;;;0.10;0.03;;;23.70;90.70;;;;;;5066904;28;45226;-74
2022/09/09 09:33:54;;;;;;;0.80;0.10;;;23.70;90.60;;;;;;5067618;28;45246;-74
2022/09/09 09:36:24;;;;;;;0.00;0.00;;;23.70;90.60;;;;;;5063457;28;45306;-70
2022/09/09 09:38:56;;;;;;;13.40;1.42;;;23.80;90.50;;;;;;5064604;28;45514;-73
2022/09/09 09:41:35;;;;;;;11.15;1.75;;;23.80;90.60;;;;;;5065265;28;45260;-73
2022/09/09 09:44:02;;;;;;;10.85;1.73;;;23.80;90.50;;;;;;5063161;28;45466;-73
2022/09/09 09:46:29;;;;;;;6.00;0.95;;;23.80;90.40;;;;;;5065283;28;45328;-73
2022/09/09 09:49:00;;;;;;;3.47;1.23;;;23.70;89.80;;;;;;5074875;28;45369;-73
2022/09/09 09:51:28;;;;;;;8.05;1.02;;;23.70;89.50;;;;;;5054864;28;45332;-72
2022/09/09 09:54:05;;;;;;;5.13;0.82;;;23.70;89.00;;;;;;5064672;28;45335;-73
2022/09/09 09:56:34;;;;;;;3.25;0.93;;;23.70;88.60;;;;;;5060069;28;45401;-71
2022/09/09 09:59:01;;;;;;;1.98;0.60;;;23.70;88.00;;;;;;5063686;28;45381;-73
2022/09/09 10:01:31;;;;;;;2.67;0.65;;;23.70;87.70;;;;;;5058474;28;45578;-73
2022/09/09 10:04:00;;;;;;;3.40;0.73;;;23.70;86.80;;;;;;5064136;28;45319;-73
2022/09/09 10:06:35;;;;;;;1.83;0.50;;;23.70;86.20;;;;;;5060904;28;45400;-73
2022/09/09 10:09:04;;;;;;;2.60;0.60;;;23.70;85.70;;;;;;5066240;28;47317;-73
2022/09/09 10:11:47;;;;;;;5.95;0.68;;;23.70;85.40;;;;;;5056372;28;45320;-73
2022/09/09 10:14:21;;;;;;;1.67;0.50;;;23.70;85.30;;;;;;5063861;28;45430;-74
2022/09/09 10:17:03;;;;;;;2.58;0.55;;;23.60;84.60;;;;;;5060500;28;45492;-73
2022/09/09 10:19:33;;;;;;;2.15;0.60;;;23.60;84.30;;;;;;5063493;28;45311;-73
2022/09/09 10:22:26;;;;;;;1.10;0.52;;;23.60;83.80;;;;;;5064013;28;46264;-71
2022/09/09 10:25:25;;;;;;;2.38;0.55;;;23.60;84.70;;;;;;5057290;28;45282;-73
2022/09/09 10:28:15;;;;;;;2.10;0.32;;;23.60;83.30;;;;;;5051579;28;45215;-73
2022/09/09 10:30:50;;;;;;;2.40;0.47;;;23.60;83.10;;;;;;5064874;28;47191;-73
2022/09/09 10:33:27;;;;;;;2.20;0.47;;;23.60;82.70;;;;;;5064374;28;45266;-73
2022/09/09 10:36:02;;;;;;;0.57;0.30;;;23.60;83.50;;;;;;5065118;28;45370;-73
2022/09/09 10:38:35;;;;;;;2.53;0.60;;;23.60;83.00;;;;;;5065405;28;45258;-73
2022/09/09 10:41:24;;;;;;;2.67;0.47;;;23.60;83.10;;;;;;5059224;28;45589;-73
2022/09/09 10:44:16;;;;;;;1.13;0.30;;;23.60;83.10;;;;;;5057755;28;45282;-73
2022/09/09 10:46:53;;;;;;;1.23;0.45;;;23.60;82.80;;;;;;5058805;28;45293;-73
2022/09/09 10:49:33;;;;;;;1.52;0.50;;;23.60;83.40;;;;;;5064209;28;45762;-73
2022/09/09 10:52:06;;;;;;;3.25;0.50;;;23.60;83.20;;;;;;5064244;28;48582;-73
2022/09/09 10:54:48;;;;;;;1.27;0.50;;;23.60;82.90;;;;;;5063673;28;45374;-73
2022/09/09 10:57:23;;;;;;;0.98;0.45;;;23.70;83.20;;;;;;5063998;28;45364;-73
2022/09/09 10:59:59;;;;;;;1.48;0.47;;;23.60;83.00;;;;;;5065342;28;45253;-74
2022/09/09 11:02:29;;;;;;;1.50;0.40;;;23.60;82.90;;;;;;5069204;28;45488;-73
2022/09/09 11:05:01;;;;;;;1.38;0.43;;;23.60;82.80;;;;;;5062302;28;45218;-73
2022/09/09 11:07:35;;;;;;;1.63;0.40;;;23.60;82.50;;;;;;5062544;28;45543;-73
2022/09/09 11:10:07;;;;;;;1.90;0.35;;;23.60;82.10;;;;;;5063632;28;45448;-73
2022/09/09 11:12:37;;;;;;;1.55;0.63;;;23.60;81.80;;;;;;5063918;28;45769;-73
2022/09/09 11:15:15;;;;;;;1.17;0.30;;;23.60;82.10;;;;;;5061060;28;45815;-73
2022/09/09 11:17:46;;;;;;;1.00;0.47;;;23.60;82.00;;;;;;5063341;28;45351;-73
2022/09/09 11:20:15;;;;;;;2.03;0.50;;;23.60;81.80;;;;;;5068743;28;45500;-73
2022/09/09 11:22:47;;;;;;;3.63;0.57;;;23.60;81.80;;;;;;5060357;28;47209;-73
2022/09/09 11:25:18;;;;;;;3.08;0.55;;;23.60;81.40;;;;;;5055546;28;45914;-73
2022/09/09 11:28:01;;;;;;;0.80;0.35;;;23.60;81.40;;;;;;5063574;28;45261;-73
2022/09/09 11:30:40;;;;;;;1.23;0.30;;;23.60;81.40;;;;;;5063698;28;45498;-73
2022/09/09 11:33:32;;;;;;;3.55;0.50;;;23.60;81.40;;;;;;5060788;28;48878;-73
2022/09/09 11:36:27;;;;;;;1.08;0.40;;;23.60;81.40;;;;;;5051776;28;45380;-74
2022/09/09 11:39:02;;;;;;;1.25;0.30;;;23.60;81.40;;;;;;5043880;28;45428;-73
2022/09/09 11:41:37;;;;;;;1.27;0.60;;;23.60;81.40;;;;;;5063902;28;45506;-73
2022/09/09 11:44:12;;;;;;;1.95;0.50;;;23.60;81.10;;;;;;5063985;28;45437;-73
2022/09/09 11:46:42;;;;;;;1.70;0.30;;;23.60;81.00;;;;;;5063432;28;45397;-74
2022/09/09 11:49:27;;;;;;;2.90;0.47;;;23.60;80.50;;;;;;5060752;28;45273;-73
2022/09/09 11:51:55;;;;;;;2.72;0.45;;;23.60;80.20;;;;;;5063783;28;45209;-74
2022/09/09 11:54:32;;;;;;;0.98;0.40;;;23.60;80.50;;;;;;5063722;28;46149;-72
2022/09/09 11:57:00;;;;;;;1.85;0.50;;;23.70;80.30;;;;;;5063274;28;45226;-74
2022/09/09 11:59:28;;;;;;;0.45;0.22;;;23.70;80.50;;;;;;5062581;28;45546;-73
2022/09/09 12:01:59;;;;;;;4.95;0.50;;;23.70;80.20;;;;;;5062156;28;45357;-74
2022/09/09 12:04:36;;;;;;;2.03;0.60;;;23.70;80.20;;;;;;5061363;28;47143;-73
2022/09/09 12:07:21;;;;;;;2.17;0.45;;;23.70;80.00;;;;;;5061568;28;45831;-73
2022/09/09 12:09:54;;;;;;;1.25;0.30;;;23.70;80.30;;;;;;5062614;28;45555;-73
2022/09/09 12:12:39;;;;;;;1.70;0.75;;;23.70;80.60;;;;;;5065747;28;45442;-73
2022/09/09 12:15:27;;;;;;;0.82;0.35;;;23.70;80.60;;;;;;5064039;28;46100;-72
2022/09/09 12:17:58;;;;;;;1.40;0.32;;;23.70;80.80;;;;;;5065592;28;46290;-73
2022/09/09 12:20:33;;;;;;;1.00;0.32;;;23.70;81.10;;;;;;5066149;28;45414;-73
2022/09/09 12:23:19;;;;;;;0.52;0.40;;;23.70;81.40;;;;;;5071135;28;45503;-73
2022/09/09 12:25:59;;;;;;;0.55;0.32;;;23.70;81.40;;;;;;5070888;28;48657;-74
2022/09/09 12:28:38;;;;;;;1.95;0.50;;;23.70;81.40;;;;;;5086241;28;45365;-73
2022/09/09 12:31:08;;;;;;;1.40;0.40;;;23.70;81.40;;;;;;5086361;28;45273;-73
2022/09/09 12:33:40;;;;;;;1.20;0.40;;;23.70;81.40;;;;;;5086484;28;45363;-73
2022/09/09 12:36:13;;;;;;;1.00;0.40;;;23.80;81.50;;;;;;5086934;28;47320;-74
2022/09/09 12:38:42;;;;;;;1.00;0.30;;;23.70;81.40;;;;;;5052613;28;45419;-72
2022/09/09 12:41:20;;;;;;;0.95;0.30;;;23.70;81.20;;;;;;5065160;28;45411;-71
2022/09/09 12:43:47;;;;;;;4.00;0.60;;;23.70;81.00;;;;;;5063341;28;45428;-72
2022/09/09 12:46:26;;;;;;;2.20;0.40;;;23.80;82.60;;;;;;5066943;28;46998;-75
2022/09/09 12:48:55;;;;;;;2.95;0.40;;;23.80;83.90;;;;;;5068919;28;45242;-73
2022/09/09 12:52:00;;;;;;;2.25;0.43;;;23.90;84.70;;;;;;5066737;28;45535;-75
2022/09/09 12:54:27;;;;;;;1.60;0.60;;;24.00;85.20;;;;;;5067703;28;45432;-75
2022/09/09 12:56:54;;;;;;;0.85;0.32;;;24.10;84.90;;;;;;5067561;28;47305;-74
2022/09/09 12:59:26;;;;;;;2.85;0.60;;;24.30;85.00;;;;;;5067563;28;45650;-74
2022/09/09 13:02:03;;;;;;;2.88;0.40;;;24.40;85.00;;;;;;5067766;28;45281;-74
2022/09/09 13:04:31;;;;;;;1.02;0.40;;;24.60;85.20;;;;;;5067775;28;45230;-75
2022/09/09 13:07:09;;;;;;;1.85;0.68;;;24.80;85.20;;;;;;5067272;28;45440;-75
2022/09/09 13:09:36;;;;;;;0.73;0.50;;;24.90;85.00;;;;;;5067249;28;45773;-75
2022/09/09 13:12:05;;;;;;;2.63;0.73;;;25.00;84.40;;;;;;5067202;28;45261;-74
2022/09/09 13:14:37;;;;;;;1.92;0.68;;;25.10;84.90;;;;;;5067450;28;45396;-74
2022/09/09 13:17:05;;;;;;;1.52;0.63;;;25.20;84.80;;;;;;5065856;28;47024;-74
2022/09/09 13:19:38;;;;;;;4.13;0.90;;;25.30;83.40;;;;;;5066457;28;45329;-75
2022/09/09 13:22:13;;;;;;;1.60;0.50;;;25.40;83.50;;;;;;5067023;28;45333;-74
2022/09/09 13:24:42;;;;;;;1.02;0.45;;;25.40;83.70;;;;;;5064178;28;45322;-74
2022/09/09 13:27:28;;;;;;;2.38;1.13;;;25.50;83.70;;;;;;5067073;28;46421;-75
2022/09/09 13:29:56;;;;;;;0.95;0.57;;;25.50;83.10;;;;;;5066871;28;45269;-75
2022/09/09 13:32:26;;;;;;;1.92;0.45;;;25.60;82.90;;;;;;5066774;28;45298;-74
2022/09/09 13:34:56;;;;;;;3.40;0.60;;;25.60;83.00;;;;;;5067105;28;45237;-75
2022/09/09 13:37:28;;;;;;;3.38;0.88;;;25.60;82.30;;;;;;5066852;28;45193;-75
2022/09/09 13:39:55;;;;;;;1.13;0.55;;;25.70;81.40;;;;;;5066924;28;45273;-73